Time;durP1;ratioP1;P1;durP2;ratioP2;P2;SDS_P1;SDS_P2;PMS_P1;PMS_P2;Temp;Humidity;BMP_temperature;BMP_pressure;BME280_temperature;BME280_humidity;BME280_pressure;Samples;Min_cycle;Max_cycle;Signal;HPM_P1;HPM_P2
2022/10/14 00:00:15;;;;;;;0.00;0.00;;;;;;;13.74;68.95;100403.41;7354474;19;20014;-61
2022/10/14 00:02:41;;;;;;;0.00;0.00;;;;;;;13.69;68.72;100395.72;7353718;19;20010;-61
2022/10/14 00:05:08;;;;;;;0.00;0.00;;;;;;;13.78;68.65;100404.97;7344792;19;20986;-61
2022/10/14 00:07:33;;;;;;;0.00;0.00;;;;;;;13.63;68.16;100387.22;7359051;19;20010;-61
2022/10/14 00:09:59;;;;;;;0.00;0.00;;;;;;;13.77;68.42;100406.72;7359004;19;20038;-61
2022/10/14 00:12:24;;;;;;;0.00;0.00;;;;;;;13.64;68.99;100392.41;7361203;19;20372;-61
2022/10/14 00:14:50;;;;;;;0.00;0.00;;;;;;;13.73;68.76;100407.78;7360005;19;20010;-61
2022/10/14 00:17:15;;;;;;;0.00;0.00;;;;;;;13.69;68.56;100392.25;7360855;19;20078;-61
2022/10/14 00:19:41;;;;;;;0.00;0.00;;;;;;;13.63;68.76;100382.81;7361539;19;20023;-61
2022/10/14 00:22:06;;;;;;;0.00;0.00;;;;;;;13.68;68.93;100388.72;7359971;19;22046;-60
2022/10/14 00:24:31;;;;;;;0.00;0.00;;;;;;;13.62;68.18;100385.50;7360239;19;20078;-61
2022/10/14 00:26:57;;;;;;;0.00;0.00;;;;;;;13.65;68.68;100394.13;7360358;19;20011;-61
2022/10/14 00:29:23;;;;;;;0.00;0.00;;;;;;;13.58;68.69;100387.41;7358434;19;20014;-61
2022/10/14 00:31:50;;;;;;;0.00;0.00;;;;;;;13.49;68.83;100380.78;7359788;19;20003;-62
2022/10/14 00:34:16;;;;;;;0.00;0.00;;;;;;;13.45;69.11;100365.22;7358441;19;20006;-61
2022/10/14 00:36:42;;;;;;;0.00;0.00;;;;;;;13.49;68.92;100377.28;7359527;19;20007;-61
2022/10/14 00:39:08;;;;;;;0.00;0.00;;;;;;;13.58;69.13;100391.78;7356125;19;21000;-61
2022/10/14 00:41:34;;;;;;;0.00;0.00;;;;;;;13.55;68.90;100387.53;7361546;19;20011;-61
2022/10/14 00:44:07;;;;;;;0.00;0.00;;;;;;;13.54;69.07;100391.09;7354843;19;20094;-62
2022/10/14 00:46:38;;;;;;;0.00;0.00;;;;;;;13.53;69.03;100384.09;7361738;19;20051;-61
2022/10/14 00:49:17;;;;;;;0.05;0.05;;;;;;;13.50;68.21;100384.25;7360551;19;20021;-61
2022/10/14 00:51:47;;;;;;;0.00;0.00;;;;;;;13.40;69.13;100370.63;7360590;19;20130;-61
2022/10/14 00:54:16;;;;;;;0.00;0.00;;;;;;;13.47;69.04;100385.19;7358867;19;20371;-61
2022/10/14 00:56:43;;;;;;;0.00;0.00;;;;;;;13.45;69.44;100386.19;7358340;19;20014;-61
2022/10/14 00:59:10;;;;;;;0.00;0.00;;;;;;;13.23;69.14;100355.56;7359568;19;20010;-61
2022/10/14 01:01:36;;;;;;;0.10;0.10;;;;;;;13.37;68.25;100383.00;7357317;19;20041;-61
2022/10/14 01:04:01;;;;;;;0.00;0.00;;;;;;;13.40;69.26;100372.41;7360825;19;20018;-61
2022/10/14 01:07:05;;;;;;;0.00;0.00;;;;;;;13.39;68.60;100370.72;7359037;19;20481;-61
2022/10/14 01:09:39;;;;;;;0.10;0.10;;;;;;;13.35;68.76;100364.72;7252962;19;2004317;-61
2022/10/14 01:12:19;;;;;;;0.00;0.00;;;;;;;13.32;69.09;100370.06;7359001;19;20040;-61
2022/10/14 01:14:53;;;;;;;0.00;0.00;;;;;;;13.32;68.77;100363.97;7358370;19;20010;-61
2022/10/14 01:17:51;;;;;;;0.10;0.10;;;;;;;13.29;67.82;100353.63;7359412;19;20018;-62
2022/10/14 01:20:32;;;;;;;0.00;0.00;;;;;;;13.26;68.11;100369.47;7253484;19;2004354;-61
2022/10/14 01:23:06;;;;;;;0.00;0.00;;;;;;;13.23;68.40;100355.56;7356263;19;20018;-62
2022/10/14 01:25:41;;;;;;;0.00;0.00;;;;;;;13.21;69.00;100357.38;7357067;19;20013;-61
2022/10/14 01:28:43;;;;;;;0.00;0.00;;;;;;;13.19;68.11;100347.84;7358130;19;20006;-61
2022/10/14 01:31:16;;;;;;;0.00;0.00;;;;;;;13.16;69.20;100348.81;7256300;19;2004459;-61
2022/10/14 01:33:44;;;;;;;0.00;0.00;;;;;;;13.14;69.30;100344.56;7360094;19;20014;-61
2022/10/14 01:36:34;;;;;;;0.00;0.00;;;;;;;13.12;68.59;100341.97;7355451;19;20979;-61
2022/10/14 01:39:13;;;;;;;0.00;0.00;;;;;;;13.09;68.33;100336.88;7356976;19;20006;-62
2022/10/14 01:41:45;;;;;;;0.00;0.00;;;;;;;12.99;69.36;100314.53;7357952;19;20026;-62
2022/10/14 01:44:12;;;;;;;0.00;0.00;;;;;;;13.04;69.53;100328.31;7358101;19;21258;-61
2022/10/14 01:46:42;;;;;;;0.00;0.00;;;;;;;12.97;69.58;100311.13;7357803;19;20817;-61
2022/10/14 01:49:14;;;;;;;0.10;0.10;;;;;;;12.91;69.40;100306.97;7357411;19;20039;-62
2022/10/14 01:51:47;;;;;;;0.00;0.00;;;;;;;12.99;68.93;100325.03;7355647;19;20014;-62
2022/10/14 01:54:18;;;;;;;0.00;0.00;;;;;;;12.94;69.42;100312.09;7357480;19;20138;-62
2022/10/14 01:56:45;;;;;;;0.00;0.00;;;;;;;12.82;69.60;100301.22;7356466;19;20035;-62
2022/10/14 01:59:13;;;;;;;0.00;0.00;;;;;;;12.82;69.39;100307.31;7350382;19;20474;-62
2022/10/14 02:01:39;;;;;;;0.10;0.10;;;;;;;12.73;69.54;100303.28;7361584;19;20090;-61
2022/10/14 02:04:34;;;;;;;0.00;0.00;;;;;;;12.93;68.10;100326.13;7360066;19;20110;-61
2022/10/14 02:07:06;;;;;;;0.00;0.00;;;;;;;12.90;69.11;100325.38;7258267;19;2004274;-61
2022/10/14 02:09:48;;;;;;;0.00;0.00;;;;;;;12.89;68.65;100323.69;7356433;19;20044;-62
2022/10/14 02:12:49;;;;;;;0.00;0.00;;;;;;;12.88;69.06;100314.13;7361595;19;20565;-61
2022/10/14 02:15:46;;;;;;;0.00;0.00;;;;;;;12.87;67.54;100309.75;7258704;19;2004266;-61
2022/10/14 02:18:18;;;;;;;;;;;;;;;12.86;66.99;100305.44;7254179;19;2005616;-61
2022/10/14 02:20:49;;;;;;;0.00;0.00;;;;;;;12.82;69.24;100295.97;7361113;19;19930;-61
2022/10/14 02:23:20;;;;;;;0.00;0.00;;;;;;;12.81;69.49;100299.53;7359246;19;20422;-62
2022/10/14 02:25:48;;;;;;;0.00;0.00;;;;;;;12.77;70.00;100298.78;7361566;19;20029;-61
2022/10/14 02:28:17;;;;;;;;;;;;;;;12.78;67.28;100294.41;7356743;19;20807;-61
2022/10/14 02:30:48;;;;;;;0.00;0.00;;;;;;;12.75;68.87;100289.28;7359838;19;19931;-61
2022/10/14 02:33:14;;;;;;;0.00;0.00;;;;;;;12.66;69.50;100282.63;7361524;19;20027;-61
2022/10/14 02:35:41;;;;;;;0.00;0.00;;;;;;;12.58;69.87;100261.97;7357868;19;20010;-62
2022/10/14 02:38:08;;;;;;;0.00;0.00;;;;;;;12.69;70.04;100275.50;7360695;19;20085;-62
2022/10/14 02:40:45;;;;;;;0.00;0.00;;;;;;;12.70;68.80;100271.97;7357829;19;20886;-61
2022/10/14 02:43:11;;;;;;;0.00;0.00;;;;;;;12.67;70.03;100269.47;7360802;19;20720;-62
2022/10/14 02:45:38;;;;;;;0.00;0.00;;;;;;;12.69;69.74;100265.03;7359503;19;20038;-61
2022/10/14 02:48:04;;;;;;;0.00;0.00;;;;;;;12.67;70.07;100265.97;7361489;19;20021;-61
2022/10/14 02:50:30;;;;;;;0.00;0.00;;;;;;;12.62;69.77;100254.81;7359638;19;20023;-61
2022/10/14 02:52:55;;;;;;;0.00;0.00;;;;;;;12.67;69.90;100250.25;7360675;19;20019;-62
2022/10/14 02:55:21;;;;;;;0.00;0.00;;;;;;;12.67;69.97;100251.16;7356472;19;20043;-60
2022/10/14 02:57:46;;;;;;;0.00;0.00;;;;;;;12.68;70.21;100250.22;7356792;19;20018;-62
2022/10/14 03:00:12;;;;;;;0.00;0.00;;;;;;;12.59;69.58;100232.22;7355397;19;20034;-62
2022/10/14 03:02:38;;;;;;;0.00;0.00;;;;;;;12.67;70.21;100240.66;7358243;19;20020;-62
2022/10/14 03:05:04;;;;;;;0.00;0.00;;;;;;;12.69;70.10;100235.34;7349984;19;20010;-61
2022/10/14 03:07:29;;;;;;;0.10;0.10;;;;;;;12.66;69.49;100238.09;7357501;19;20133;-61
2022/10/14 03:09:55;;;;;;;0.10;0.10;;;;;;;12.61;69.88;100225.16;7355382;19;20082;-61
2022/10/14 03:12:20;;;;;;;0.00;0.00;;;;;;;12.69;69.77;100236.19;7357231;19;20014;-61
2022/10/14 03:14:46;;;;;;;0.00;0.00;;;;;;;12.66;69.98;100233.69;7355145;19;20015;-62
2022/10/14 03:17:11;;;;;;;0.00;0.00;;;;;;;12.62;70.11;100221.66;7358544;19;20041;-61
2022/10/14 03:19:37;;;;;;;0.00;0.00;;;;;;;12.69;69.48;100223.09;7346718;19;20013;-61
2022/10/14 03:22:02;;;;;;;0.00;0.00;;;;;;;12.70;69.78;100222.19;7348516;19;20014;-61
2022/10/14 03:24:27;;;;;;;0.00;0.00;;;;;;;12.68;69.74;100208.31;7352857;19;20039;-61
2022/10/14 03:26:53;;;;;;;0.03;0.03;;;;;;;12.72;70.12;100216.88;7354874;19;20018;-61
2022/10/14 03:29:18;;;;;;;0.00;0.00;;;;;;;12.73;70.09;100208.13;7350844;19;20487;-60
2022/10/14 03:31:44;;;;;;;0.00;0.00;;;;;;;12.63;69.94;100185.81;7355324;19;20094;-61
2022/10/14 03:34:09;;;;;;;0.00;0.00;;;;;;;12.76;70.11;100199.28;7355980;19;20010;-61
2022/10/14 03:36:35;;;;;;;0.00;0.00;;;;;;;12.72;69.71;100190.69;7353303;19;20022;-61
2022/10/14 03:39:00;;;;;;;0.00;0.00;;;;;;;12.72;69.98;100194.19;7355881;19;20007;-61
2022/10/14 03:41:25;;;;;;;0.00;0.00;;;;;;;12.78;70.27;100190.47;7354724;19;20206;-61
2022/10/14 03:43:51;;;;;;;0.03;0.03;;;;;;;12.80;69.59;100203.50;7359232;19;20019;-61
2022/10/14 03:46:17;;;;;;;0.00;0.00;;;;;;;12.78;70.01;100189.63;7358756;19;20022;-61
2022/10/14 03:48:42;;;;;;;0.00;0.00;;;;;;;12.63;70.00;100165.72;7362296;19;20007;-61
2022/10/14 03:51:08;;;;;;;0.00;0.00;;;;;;;12.80;70.02;100193.00;7362505;19;20048;-61
2022/10/14 03:53:33;;;;;;;0.00;0.00;;;;;;;12.79;69.40;100196.56;7361225;19;20113;-62
2022/10/14 03:55:59;;;;;;;0.10;0.10;;;;;;;12.81;69.34;100198.19;7361921;19;20014;-61
2022/10/14 03:58:24;;;;;;;0.00;0.00;;;;;;;12.65;70.06;100169.13;7361528;19;20041;-61
2022/10/14 04:00:49;;;;;;;0.00;0.00;;;;;;;12.82;69.55;100201.66;7361088;19;20621;-61
2022/10/14 04:03:15;;;;;;;0.00;0.00;;;;;;;12.69;69.32;100175.94;7360959;19;20034;-61
2022/10/14 04:05:40;;;;;;;0.00;0.00;;;;;;;12.82;69.84;100196.41;7362374;19;20021;-62
2022/10/14 04:08:06;;;;;;;0.00;0.00;;;;;;;12.79;69.86;100180.84;7360185;19;20121;-61
2022/10/14 04:10:32;;;;;;;0.00;0.00;;;;;;;12.76;69.89;100175.69;7362648;19;20716;-61
2022/10/14 04:12:57;;;;;;;0.10;0.10;;;;;;;12.84;69.37;100184.13;7357204;19;20018;-61
2022/10/14 04:15:23;;;;;;;0.00;0.00;;;;;;;12.85;69.64;100185.81;7361821;19;20026;-61
2022/10/14 04:17:48;;;;;;;0.03;0.03;;;;;;;12.75;69.74;100168.75;7358864;19;20014;-61
2022/10/14 04:20:15;;;;;;;0.00;0.00;;;;;;;12.87;69.99;100184.81;7361294;19;20010;-61
2022/10/14 04:22:41;;;;;;;0.00;0.00;;;;;;;12.80;70.04;100178.13;7358298;19;20470;-61
2022/10/14 04:25:07;;;;;;;0.10;0.10;;;;;;;12.92;69.31;100192.50;7361915;19;20094;-61
2022/10/14 04:27:32;;;;;;;0.00;0.00;;;;;;;12.78;70.21;100148.53;7359911;19;20014;-61
2022/10/14 04:29:58;;;;;;;0.05;0.05;;;;;;;12.95;69.73;100169.66;7358316;19;20003;-62
2022/10/14 04:32:23;;;;;;;0.00;0.00;;;;;;;12.96;69.57;100173.13;7360536;19;20010;-61
2022/10/14 04:34:49;;;;;;;0.00;0.00;;;;;;;12.95;70.25;100155.69;7360518;19;20022;-61
2022/10/14 04:37:14;;;;;;;0.03;0.03;;;;;;;13.10;70.23;100170.78;7359814;19;20022;-61
2022/10/14 04:39:40;;;;;;;0.00;0.00;;;;;;;13.00;70.19;100145.88;7360590;19;20122;-61
2022/10/14 04:42:05;;;;;;;0.00;0.00;;;;;;;13.17;70.14;100169.59;7361135;19;20028;-62
2022/10/14 04:44:31;;;;;;;0.00;0.00;;;;;;;13.24;70.29;100168.47;7357374;19;20618;-61
2022/10/14 04:46:56;;;;;;;0.00;0.00;;;;;;;13.30;70.26;100166.53;7358037;19;20010;-61
2022/10/14 04:49:22;;;;;;;0.00;0.00;;;;;;;13.35;69.92;100154.06;7361047;19;20019;-61
2022/10/14 04:51:47;;;;;;;0.00;0.00;;;;;;;13.39;70.01;100155.66;7359869;19;20010;-61
2022/10/14 04:54:13;;;;;;;0.00;0.00;;;;;;;13.44;69.62;100153.69;7358878;19;20015;-61
2022/10/14 04:56:38;;;;;;;0.00;0.00;;;;;;;13.36;69.85;100124.28;7358650;19;20026;-61
2022/10/14 04:59:04;;;;;;;0.00;0.00;;;;;;;13.50;69.52;100150.78;7357052;19;20082;-61
2022/10/14 05:01:29;;;;;;;0.10;0.10;;;;;;;13.57;69.55;100154.81;7358003;19;20017;-61
2022/10/14 05:03:55;;;;;;;0.00;0.00;;;;;;;13.58;69.51;100140.78;7361022;19;20482;-61
2022/10/14 05:06:20;;;;;;;0.00;0.00;;;;;;;13.53;69.25;100132.25;7358906;19;20019;-61
2022/10/14 05:08:46;;;;;;;0.00;0.00;;;;;;;13.66;69.20;100146.56;7358726;19;20010;-61
2022/10/14 05:11:11;;;;;;;0.10;0.10;;;;;;;13.69;69.25;100156.94;7360134;19;20018;-62
2022/10/14 05:13:37;;;;;;;0.00;0.00;;;;;;;13.60;69.03;100132.88;7360356;19;20495;-61
2022/10/14 05:16:03;;;;;;;0.00;0.00;;;;;;;13.74;69.23;100157.59;7356609;19;20072;-61
2022/10/14 05:18:28;;;;;;;0.00;0.00;;;;;;;13.77;69.10;100154.81;7359141;19;20082;-61
2022/10/14 05:20:57;;;;;;;0.00;0.00;;;;;;;13.71;69.25;100139.34;7359463;19;20013;-61
2022/10/14 05:23:22;;;;;;;0.00;0.00;;;;;;;13.81;69.17;100146.81;7358141;19;20014;-61
2022/10/14 05:25:48;;;;;;;0.00;0.00;;;;;;;13.83;69.18;100150.19;7361020;19;22301;-61
2022/10/14 05:28:13;;;;;;;0.10;0.10;;;;;;;13.84;69.08;100152.78;7357062;19;20006;-61
2022/10/14 05:30:39;;;;;;;0.00;0.00;;;;;;;13.82;69.54;100145.88;7357828;19;20002;-61
2022/10/14 05:33:04;;;;;;;0.00;0.00;;;;;;;13.88;69.47;100148.22;7359871;19;20028;-62
2022/10/14 05:35:29;;;;;;;0.00;0.00;;;;;;;13.90;69.42;100154.28;7357687;19;20985;-62
2022/10/14 05:37:56;;;;;;;0.00;0.00;;;;;;;13.93;69.34;100162.00;7358354;19;20009;-61
2022/10/14 05:40:22;;;;;;;0.05;0.05;;;;;;;13.91;69.17;100158.59;7359389;19;20029;-61
2022/10/14 05:42:47;;;;;;;0.00;0.00;;;;;;;13.95;68.76;100158.38;7357317;19;20007;-61
2022/10/14 05:45:13;;;;;;;0.00;0.00;;;;;;;13.96;69.08;100167.09;7358838;19;20010;-61
2022/10/14 05:47:38;;;;;;;0.05;0.05;;;;;;;13.97;68.93;100158.31;7357327;19;20018;-61
2022/10/14 05:50:04;;;;;;;0.00;0.00;;;;;;;13.98;69.08;100160.84;7357729;19;20022;-60
2022/10/14 05:52:31;;;;;;;0.00;0.00;;;;;;;13.99;69.11;100156.47;7358150;19;20021;-61
2022/10/14 05:54:57;;;;;;;0.08;0.08;;;;;;;14.00;69.07;100163.44;7358207;19;20026;-61
2022/10/14 05:57:22;;;;;;;0.00;0.00;;;;;;;13.99;68.91;100161.75;7360244;19;20466;-61
2022/10/14 05:59:48;;;;;;;0.00;0.00;;;;;;;14.00;68.68;100163.44;7350715;19;20026;-61
2022/10/14 06:02:13;;;;;;;0.00;0.00;;;;;;;13.98;68.97;100150.34;7360746;19;20339;-62
2022/10/14 06:04:41;;;;;;;0.00;0.00;;;;;;;13.97;68.81;100147.81;7360358;19;20034;-61
2022/10/14 06:07:09;;;;;;;0.00;0.00;;;;;;;13.99;69.07;100157.34;7362003;19;20124;-61
2022/10/14 06:09:34;;;;;;;0.00;0.00;;;;;;;13.95;68.92;100140.00;7359303;19;20028;-61
2022/10/14 06:12:00;;;;;;;0.00;0.00;;;;;;;14.02;68.98;100161.56;7362421;19;20010;-61
2022/10/14 06:14:25;;;;;;;0.00;0.00;;;;;;;13.85;69.01;100119.50;7360137;19;20840;-61
2022/10/14 06:16:50;;;;;;;0.00;0.00;;;;;;;13.94;68.69;100134.84;7354794;19;20022;-61
2022/10/14 06:19:16;;;;;;;0.00;0.00;;;;;;;13.98;68.55;100144.25;7358728;19;20018;-62
2022/10/14 06:21:43;;;;;;;0.00;0.00;;;;;;;14.02;68.64;100146.69;7357037;19;20002;-62
2022/10/14 06:24:09;;;;;;;0.00;0.00;;;;;;;13.98;68.91;100133.75;7357637;19;20465;-61
2022/10/14 06:26:34;;;;;;;0.00;0.00;;;;;;;13.98;68.34;100136.38;7360686;19;20078;-62
2022/10/14 06:29:00;;;;;;;0.00;0.00;;;;;;;13.91;68.47;100127.09;7354499;19;20838;-61
2022/10/14 06:31:25;;;;;;;0.00;0.00;;;;;;;13.88;68.73;100122.81;7361893;19;20006;-61
2022/10/14 06:33:50;;;;;;;0.00;0.00;;;;;;;13.86;68.89;100115.94;7354915;19;20010;-61
2022/10/14 06:36:16;;;;;;;0.00;0.00;;;;;;;13.97;68.61;100147.81;7359046;19;20010;-61
2022/10/14 06:38:41;;;;;;;0.05;0.05;;;;;;;13.94;68.90;100142.72;7358341;19;20698;-61
2022/10/14 06:41:07;;;;;;;0.00;0.00;;;;;;;13.94;69.17;100148.81;7360253;19;20010;-61
2022/10/14 06:43:34;;;;;;;0.00;0.00;;;;;;;13.95;68.47;100140.00;7361618;19;20843;-61
2022/10/14 06:46:00;;;;;;;0.00;0.00;;;;;;;13.95;68.82;100149.66;7361317;19;20046;-61
2022/10/14 06:48:25;;;;;;;0.00;0.00;;;;;;;13.84;68.85;100126.53;7359341;19;20021;-61
2022/10/14 06:50:51;;;;;;;0.05;0.05;;;;;;;13.94;69.04;100154.06;7348240;19;20006;-61
2022/10/14 06:53:16;;;;;;;0.00;0.00;;;;;;;13.94;68.81;100145.34;7361724;19;20014;-61
2022/10/14 06:55:41;;;;;;;0.00;0.00;;;;;;;13.93;69.01;100141.00;7361071;19;20006;-61
2022/10/14 06:58:07;;;;;;;0.00;0.00;;;;;;;13.92;69.42;100139.28;7358192;19;20065;-61
2022/10/14 07:00:32;;;;;;;0.00;0.00;;;;;;;13.87;69.01;100141.28;7356941;19;20014;-61
2022/10/14 07:02:58;;;;;;;0.05;0.05;;;;;;;13.92;69.17;100160.28;7358152;19;20175;-61
2022/10/14 07:05:24;;;;;;;0.10;0.10;;;;;;;13.92;69.30;100165.53;7355295;19;20509;-61
2022/10/14 07:07:49;;;;;;;0.00;0.00;;;;;;;13.86;69.12;100155.31;7358982;19;20015;-61
2022/10/14 07:10:15;;;;;;;0.00;0.00;;;;;;;13.93;69.07;100173.34;7351675;19;20009;-61
2022/10/14 07:12:40;;;;;;;0.00;0.00;;;;;;;13.94;69.22;100168.97;7357306;19;20025;-61
2022/10/14 07:15:06;;;;;;;0.00;0.00;;;;;;;13.94;69.45;100174.22;7358636;19;20542;-61
2022/10/14 07:17:32;;;;;;;0.05;0.05;;;;;;;13.95;69.39;100181.16;7366400;19;20010;-61
2022/10/14 07:19:57;;;;;;;0.00;0.00;;;;;;;13.95;69.58;100183.78;7366324;19;20018;-61
2022/10/14 07:22:22;;;;;;;0.00;0.00;;;;;;;13.82;69.22;100162.47;7364250;19;20015;-61
2022/10/14 07:24:48;;;;;;;0.00;0.00;;;;;;;13.94;69.55;100184.72;7366619;19;20017;-61
2022/10/14 07:27:15;;;;;;;0.00;0.00;;;;;;;13.96;69.21;100186.34;7367470;19;20010;-61
2022/10/14 07:29:41;;;;;;;0.10;0.10;;;;;;;13.97;69.43;100188.03;7365512;19;20014;-61
2022/10/14 07:32:06;;;;;;;0.00;0.00;;;;;;;14.00;69.70;100187.06;7367011;19;20003;-60
2022/10/14 07:34:33;;;;;;;0.00;0.00;;;;;;;14.00;69.63;100185.28;7364707;19;20013;-61
2022/10/14 07:36:59;;;;;;;0.00;0.00;;;;;;;14.02;69.30;100187.81;7364440;19;20023;-59
2022/10/14 07:39:26;;;;;;;0.00;0.00;;;;;;;14.02;69.14;100182.59;7363635;19;20011;-63
2022/10/14 07:41:51;;;;;;;0.10;0.10;;;;;;;14.06;69.63;100183.31;7367170;19;20691;-61
2022/10/14 07:44:16;;;;;;;0.00;0.00;;;;;;;13.95;69.20;100168.88;7366356;19;20007;-61
2022/10/14 07:46:44;;;;;;;0.00;0.00;;;;;;;14.04;69.29;100180.75;7366506;19;20026;-61
2022/10/14 07:49:12;;;;;;;0.00;0.00;;;;;;;14.14;69.29;100191.66;7365811;19;20395;-61
2022/10/14 07:51:38;;;;;;;0.00;0.00;;;;;;;14.14;69.11;100196.91;7363925;19;20027;-62
2022/10/14 07:54:09;;;;;;;0.10;0.10;;;;;;;14.17;69.21;100192.38;7366746;19;20022;-62
2022/10/14 07:56:36;;;;;;;0.00;0.00;;;;;;;14.17;69.16;100192.38;7365226;19;20030;-61
2022/10/14 07:59:02;;;;;;;0.00;0.00;;;;;;;14.20;69.50;100197.50;7365525;19;20010;-61
2022/10/14 08:01:27;;;;;;;0.00;0.00;;;;;;;14.22;69.32;100206.16;7366413;19;20465;-61
2022/10/14 08:03:52;;;;;;;0.00;0.00;;;;;;;14.24;68.90;100212.22;7364160;19;20474;-61
2022/10/14 08:06:18;;;;;;;0.00;0.00;;;;;;;14.26;69.29;100205.09;7364853;19;21213;-61
2022/10/14 08:08:43;;;;;;;0.10;0.10;;;;;;;14.16;69.32;100180.19;7363973;19;20010;-61
2022/10/14 08:11:20;;;;;;;0.00;0.00;;;;;;;14.35;68.95;100200.34;7361296;19;22006;-61
2022/10/14 08:13:46;;;;;;;0.10;0.10;;;;;;;14.32;69.12;100195.22;7361162;19;20017;-61
2022/10/14 08:16:20;;;;;;;0.00;0.00;;;;;;;14.37;68.79;100204.59;7360791;19;20014;-61
2022/10/14 08:18:46;;;;;;;0.00;0.00;;;;;;;14.39;68.93;100215.03;7364175;19;20010;-61
2022/10/14 08:21:13;;;;;;;0.00;0.00;;;;;;;14.42;68.77;100212.28;7365477;19;21096;-61
2022/10/14 08:23:39;;;;;;;0.00;0.00;;;;;;;14.44;68.85;100207.78;7365753;19;20018;-61
2022/10/14 08:26:34;;;;;;;0.10;0.10;;;;;;;14.45;68.25;100204.25;7364706;19;20097;-61
2022/10/14 08:29:02;;;;;;;0.10;0.10;;;;;;;14.49;68.34;100213.72;7262382;19;2004010;-61
2022/10/14 08:31:28;;;;;;;0.00;0.00;;;;;;;14.50;68.63;100212.81;7366019;19;20015;-61
2022/10/14 08:33:54;;;;;;;0.10;0.10;;;;;;;14.53;68.67;100215.28;7364792;19;20047;-62
2022/10/14 08:36:20;;;;;;;0.00;0.00;;;;;;;14.55;68.64;100216.09;7363381;19;20497;-61
2022/10/14 08:38:46;;;;;;;0.00;0.00;;;;;;;14.49;68.33;100197.94;7364647;19;20014;-62
2022/10/14 08:41:11;;;;;;;0.00;0.00;;;;;;;14.61;68.48;100213.16;7364170;19;22217;-62
2022/10/14 08:44:14;;;;;;;0.00;0.00;;;;;;;14.70;68.19;100217.97;7361884;19;20010;-62
2022/10/14 08:46:47;;;;;;;0.00;0.00;;;;;;;14.63;68.01;100206.03;7260385;19;2004313;-61
2022/10/14 08:49:15;;;;;;;0.10;0.10;;;;;;;14.74;68.09;100219.50;7363921;19;20035;-61
2022/10/14 08:51:45;;;;;;;0.00;0.00;;;;;;;14.70;67.81;100207.47;7362765;19;20010;-61
2022/10/14 08:54:17;;;;;;;0.00;0.00;;;;;;;14.73;67.69;100209.94;7362357;19;20010;-61
2022/10/14 08:56:43;;;;;;;0.00;0.00;;;;;;;14.79;67.87;100222.78;7360959;19;20011;-62
2022/10/14 08:59:18;;;;;;;0.00;0.00;;;;;;;14.88;67.94;100225.91;7361699;19;20003;-61
2022/10/14 09:01:52;;;;;;;0.00;0.00;;;;;;;14.91;67.79;100236.28;7360992;19;20006;-61
2022/10/14 09:04:18;;;;;;;0.00;0.00;;;;;;;14.84;67.73;100217.31;7363179;19;20469;-61
2022/10/14 09:06:46;;;;;;;0.00;0.00;;;;;;;14.99;67.36;100234.13;7361973;19;20006;-61
2022/10/14 09:09:25;;;;;;;0.00;0.00;;;;;;;15.05;67.73;100228.56;7363648;19;20008;-62
2022/10/14 09:11:56;;;;;;;0.10;0.10;;;;;;;15.09;67.47;100235.38;7359327;19;20002;-62
2022/10/14 09:14:25;;;;;;;0.00;0.00;;;;;;;14.79;67.37;100175.47;7362800;19;20018;-62
2022/10/14 09:16:55;;;;;;;0.00;0.00;;;;;;;15.21;67.25;100229.53;7352104;19;20007;-61
2022/10/14 09:19:31;;;;;;;0.00;0.00;;;;;;;15.31;67.72;100235.19;7360032;19;20678;-61
2022/10/14 09:21:58;;;;;;;0.00;0.00;;;;;;;15.39;67.27;100240.06;7358544;19;20552;-61
2022/10/14 09:24:34;;;;;;;0.00;0.00;;;;;;;15.49;67.49;100233.41;7362996;19;20024;-62
2022/10/14 09:27:05;;;;;;;0.00;0.00;;;;;;;15.63;66.65;100235.34;7361332;19;20010;-61
2022/10/14 09:29:48;;;;;;;0.00;0.00;;;;;;;15.72;66.67;100238.41;7361986;19;20042;-61
2022/10/14 09:32:42;;;;;;;0.00;0.00;;;;;;;15.76;66.75;100237.31;7361564;19;20105;-61
2022/10/14 09:35:25;;;;;;;0.10;0.10;;;;;;;15.77;66.73;100233.75;7259589;19;2004467;-61
2022/10/14 09:37:52;;;;;;;0.00;0.00;;;;;;;15.67;66.13;100222.00;7360166;19;20018;-62
2022/10/14 09:40:33;;;;;;;0.10;0.10;;;;;;;15.81;66.37;100224.75;7357915;19;20382;-61
2022/10/14 09:43:14;;;;;;;0.00;0.00;;;;;;;15.82;66.11;100223.81;7361713;19;20002;-61
2022/10/14 09:45:54;;;;;;;0.00;0.00;;;;;;;15.87;66.22;100222.75;7361043;19;20642;-61
2022/10/14 09:48:31;;;;;;;0.00;0.00;;;;;;;15.92;66.50;100223.34;7359581;19;20006;-61
2022/10/14 09:50:58;;;;;;;0.00;0.00;;;;;;;15.94;66.11;100224.09;7360857;19;20006;-60
2022/10/14 09:53:25;;;;;;;;;;;;;;;16.09;66.42;100223.31;7362413;19;21332;-62
2022/10/14 09:56:00;;;;;;;0.00;0.00;;;;;;;16.21;66.67;100216.53;7362312;19;19933;-61
2022/10/14 09:58:34;;;;;;;0.10;0.10;;;;;;;16.32;65.64;100215.03;7360489;19;20015;-62
2022/10/14 10:01:00;;;;;;;0.00;0.00;;;;;;;16.41;65.93;100212.81;7360574;19;20021;-62
2022/10/14 10:03:31;;;;;;;0.10;0.10;;;;;;;16.67;65.31;100214.00;7356780;19;20015;-61
2022/10/14 10:06:11;;;;;;;0.03;0.03;;;;;;;16.99;66.08;100220.16;7361699;19;20015;-61
2022/10/14 10:08:54;;;;;;;0.00;0.00;;;;;;;17.19;64.93;100211.94;7361668;19;20701;-62
2022/10/14 10:11:36;;;;;;;0.00;0.00;;;;;;;17.58;66.08;100215.81;7358674;19;20015;-61
2022/10/14 10:14:16;;;;;;;0.00;0.00;;;;;;;17.82;64.56;100195.88;7360526;19;20015;-61
2022/10/14 10:16:42;;;;;;;0.00;0.00;;;;;;;17.92;62.49;100195.34;7360412;19;20052;-61
2022/10/14 10:19:29;;;;;;;0.00;0.00;;;;;;;18.02;62.79;100186.75;7360866;19;25667;-60
2022/10/14 10:22:13;;;;;;;0.08;0.08;;;;;;;17.98;62.53;100179.09;7261474;19;2004868;-61
2022/10/14 10:24:39;;;;;;;0.03;0.03;;;;;;;17.88;61.52;100178.81;7363430;19;20014;-62
2022/10/14 10:27:19;;;;;;;0.10;0.10;;;;;;;17.98;62.70;100189.66;7363004;19;20037;-62
2022/10/14 10:29:44;;;;;;;0.10;0.10;;;;;;;17.99;61.87;100189.56;7362716;19;20038;-62
2022/10/14 10:32:16;;;;;;;0.00;0.00;;;;;;;18.16;61.55;100183.25;7360455;19;21472;-61
2022/10/14 10:35:13;;;;;;;0.00;0.00;;;;;;;18.51;63.30;100193.41;7362295;19;20043;-62
2022/10/14 10:37:42;;;;;;;0.05;0.05;;;;;;;18.70;60.83;100193.09;7257937;19;2004554;-61
2022/10/14 10:40:24;;;;;;;0.08;0.08;;;;;;;18.97;60.31;100188.66;7363117;19;20014;-61
2022/10/14 10:43:20;;;;;;;0.08;0.08;;;;;;;19.41;62.30;100175.13;7359627;19;20049;-61
2022/10/14 10:46:08;;;;;;;0.10;0.10;;;;;;;19.78;61.92;100180.56;7258296;19;2005123;-62
2022/10/14 10:48:46;;;;;;;0.00;0.00;;;;;;;20.11;61.02;100166.72;7260025;19;2004490;-62
2022/10/14 10:51:18;;;;;;;0.00;0.00;;;;;;;20.51;58.58;100192.25;7359801;19;20027;-61
2022/10/14 10:54:01;;;;;;;0.00;0.00;;;;;;;20.93;58.84;100193.56;7362126;19;20014;-61
2022/10/14 10:56:37;;;;;;;0.10;0.10;;;;;;;21.07;56.53;100187.25;7361096;19;20019;-61
2022/10/14 10:59:46;;;;;;;0.00;0.00;;;;;;;21.06;57.35;100182.91;7359198;19;20018;-62
2022/10/14 11:02:25;;;;;;;0.00;0.00;;;;;;;20.91;55.29;100180.41;7259783;19;2004220;-62
2022/10/14 11:05:03;;;;;;;0.05;0.05;;;;;;;20.73;54.79;100185.28;7359082;19;20221;-61
2022/10/14 11:14:09;;;;;;;0.00;0.00;;;;;;;20.26;55.61;100158.66;7152371;19;2005328;-62
2022/10/14 11:16:49;;;;;;;0.10;0.10;;;;;;;20.52;56.16;100175.38;7359000;19;20010;-61
2022/10/14 11:19:21;;;;;;;0.00;0.00;;;;;;;20.67;54.31;100169.78;7361774;19;20015;-61
2022/10/14 11:22:07;;;;;;;0.00;0.00;;;;;;;21.16;56.73;100160.00;7358142;19;20456;-62
2022/10/14 11:24:53;;;;;;;0.10;0.10;;;;;;;21.56;53.79;100162.31;7359820;19;20010;-61
2022/10/14 11:27:30;;;;;;;0.10;0.10;;;;;;;22.00;53.93;100159.69;7360969;19;20010;-62
2022/10/14 11:30:14;;;;;;;0.10;0.10;;;;;;;;;;7357546;19;20640;-61
2022/10/14 11:33:08;;;;;;;0.00;0.00;;;;;;;22.21;52.63;100167.81;7357389;19;20017;-61
2022/10/14 11:35:53;;;;;;;0.00;0.00;;;;;;;22.02;52.54;100157.75;7256458;19;2004262;-62
2022/10/14 11:38:41;;;;;;;0.03;0.03;;;;;;;21.76;52.40;100167.78;7359685;19;20002;-61
2022/10/14 11:41:10;;;;;;;0.10;0.10;;;;;;;21.23;50.84;100145.28;7354555;19;20006;-61
2022/10/14 11:43:38;;;;;;;0.10;0.10;;;;;;;21.16;50.67;100178.59;7353071;19;20025;-61
2022/10/14 11:46:09;;;;;;;0.00;0.00;;;;;;;20.88;50.19;100169.16;7354603;19;20006;-61